sensor_id;sensor_type;location;lat;lon;timestamp;P1;durP1;ratioP1;P2;durP2;ratioP2
16270;SDS011;8243;49.048;8.396;2024-03-23T00:52:06;4.73;;;4.30;;
16270;SDS011;8243;49.048;8.396;2024-03-23T00:54:31;7.40;;;4.90;;
16270;SDS011;8243;49.048;8.396;2024-03-23T00:56:57;8.00;;;4.30;;
16270;SDS011;8243;49.048;8.396;2024-03-23T00:59:22;6.33;;;4.73;;
16270;SDS011;8243;49.048;8.396;2024-03-23T01:01:52;6.73;;;4.90;;
16270;SDS011;8243;49.048;8.396;2024-03-23T01:04:18;6.83;;;4.73;;
16270;SDS011;8243;49.048;8.396;2024-03-23T01:06:43;7.10;;;5.03;;
16270;SDS011;8243;49.048;8.396;2024-03-23T01:09:09;7.00;;;5.37;;
16270;SDS011;8243;49.048;8.396;2024-03-23T01:11:35;7.03;;;5.03;;
16270;SDS011;8243;49.048;8.396;2024-03-23T01:14:02;6.20;;;5.07;;
16270;SDS011;8243;49.048;8.396;2024-03-23T01:16:28;5.07;;;4.50;;
16270;SDS011;8243;49.048;8.396;2024-03-23T01:18:54;5.30;;;4.80;;
16270;SDS011;8243;49.048;8.396;2024-03-23T01:21:19;5.63;;;5.00;;
16270;SDS011;8243;49.048;8.396;2024-03-23T01:23:45;5.20;;;4.70;;
16270;SDS011;8243;49.048;8.396;2024-03-23T01:26:10;8.23;;;5.03;;
16270;SDS011;8243;49.048;8.396;2024-03-23T01:28:36;5.10;;;4.60;;
16270;SDS011;8243;49.048;8.396;2024-03-23T01:31:02;5.40;;;4.53;;
16270;SDS011;8243;49.048;8.396;2024-03-23T01:33:27;6.10;;;4.50;;
16270;SDS011;8243;49.048;8.396;2024-03-23T01:35:53;6.90;;;4.60;;
16270;SDS011;8243;49.048;8.396;2024-03-23T01:38:18;5.37;;;4.47;;
16270;SDS011;8243;49.048;8.396;2024-03-23T01:40:44;6.50;;;4.53;;
16270;SDS011;8243;49.048;8.396;2024-03-23T01:43:09;7.37;;;4.80;;
16270;SDS011;8243;49.048;8.396;2024-03-23T01:45:35;5.10;;;4.60;;
16270;SDS011;8243;49.048;8.396;2024-03-23T01:48:01;6.43;;;4.67;;
16270;SDS011;8243;49.048;8.396;2024-03-23T01:50:27;5.23;;;4.73;;
16270;SDS011;8243;49.048;8.396;2024-03-23T01:52:55;8.53;;;4.67;;
16270;SDS011;8243;49.048;8.396;2024-03-23T01:55:22;5.70;;;4.60;;
16270;SDS011;8243;49.048;8.396;2024-03-23T01:57:48;5.07;;;4.33;;
16270;SDS011;8243;49.048;8.396;2024-03-23T02:00:14;4.30;;;3.90;;
16270;SDS011;8243;49.048;8.396;2024-03-23T02:02:43;9.17;;;4.83;;
16270;SDS011;8243;49.048;8.396;2024-03-23T02:05:10;5.60;;;4.73;;
16270;SDS011;8243;49.048;8.396;2024-03-23T02:07:39;6.87;;;5.03;;
16270;SDS011;8243;49.048;8.396;2024-03-23T02:10:06;6.87;;;4.97;;
16270;SDS011;8243;49.048;8.396;2024-03-23T02:12:32;6.80;;;4.67;;
16270;SDS011;8243;49.048;8.396;2024-03-23T02:14:58;6.53;;;4.63;;
16270;SDS011;8243;49.048;8.396;2024-03-23T02:17:23;6.00;;;4.60;;
16270;SDS011;8243;49.048;8.396;2024-03-23T02:19:50;8.13;;;4.90;;
16270;SDS011;8243;49.048;8.396;2024-03-23T02:22:15;5.10;;;4.60;;
16270;SDS011;8243;49.048;8.396;2024-03-23T02:24:41;6.43;;;5.20;;
16270;SDS011;8243;49.048;8.396;2024-03-23T02:27:07;6.20;;;4.70;;
16270;SDS011;8243;49.048;8.396;2024-03-23T02:29:32;9.03;;;4.90;;
16270;SDS011;8243;49.048;8.396;2024-03-23T02:31:58;5.70;;;4.90;;
16270;SDS011;8243;49.048;8.396;2024-03-23T02:34:24;6.87;;;4.90;;
16270;SDS011;8243;49.048;8.396;2024-03-23T02:36:49;5.67;;;4.47;;
16270;SDS011;8243;49.048;8.396;2024-03-23T02:39:15;8.10;;;4.47;;
16270;SDS011;8243;49.048;8.396;2024-03-23T02:41:40;6.00;;;5.20;;
16270;SDS011;8243;49.048;8.396;2024-03-23T02:44:06;5.60;;;4.17;;
16270;SDS011;8243;49.048;8.396;2024-03-23T02:46:31;8.10;;;5.03;;
16270;SDS011;8243;49.048;8.396;2024-03-23T02:48:57;7.70;;;4.67;;
16270;SDS011;8243;49.048;8.396;2024-03-23T02:51:22;5.43;;;4.63;;
16270;SDS011;8243;49.048;8.396;2024-03-23T02:53:48;8.87;;;5.03;;
16270;SDS011;8243;49.048;8.396;2024-03-23T02:56:14;6.87;;;5.27;;
16270;SDS011;8243;49.048;8.396;2024-03-23T02:58:42;9.20;;;5.50;;
16270;SDS011;8243;49.048;8.396;2024-03-23T03:01:08;6.00;;;5.27;;
16270;SDS011;8243;49.048;8.396;2024-03-23T03:03:33;6.90;;;5.90;;
16270;SDS011;8243;49.048;8.396;2024-03-23T03:05:59;7.33;;;5.80;;
16270;SDS011;8243;49.048;8.396;2024-03-23T03:08:24;6.67;;;5.77;;
16270;SDS011;8243;49.048;8.396;2024-03-23T03:10:50;6.47;;;5.83;;
16270;SDS011;8243;49.048;8.396;2024-03-23T03:13:16;7.07;;;5.90;;
16270;SDS011;8243;49.048;8.396;2024-03-23T03:15:42;7.63;;;6.30;;
16270;SDS011;8243;49.048;8.396;2024-03-23T03:18:08;8.37;;;6.40;;
16270;SDS011;8243;49.048;8.396;2024-03-23T03:20:37;9.37;;;7.20;;
16270;SDS011;8243;49.048;8.396;2024-03-23T03:23:04;10.03;;;7.00;;
16270;SDS011;8243;49.048;8.396;2024-03-23T03:25:30;8.63;;;7.10;;
16270;SDS011;8243;49.048;8.396;2024-03-23T03:27:55;10.87;;;7.50;;
16270;SDS011;8243;49.048;8.396;2024-03-23T03:30:21;8.83;;;7.53;;
16270;SDS011;8243;49.048;8.396;2024-03-23T03:32:47;13.43;;;8.00;;
16270;SDS011;8243;49.048;8.396;2024-03-23T03:35:12;8.73;;;7.70;;
16270;SDS011;8243;49.048;8.396;2024-03-23T03:37:38;10.57;;;7.90;;
16270;SDS011;8243;49.048;8.396;2024-03-23T03:40:03;10.23;;;7.47;;
16270;SDS011;8243;49.048;8.396;2024-03-23T03:42:29;8.77;;;7.23;;
16270;SDS011;8243;49.048;8.396;2024-03-23T03:44:55;9.77;;;7.27;;
16270;SDS011;8243;49.048;8.396;2024-03-23T03:47:20;9.03;;;7.27;;
16270;SDS011;8243;49.048;8.396;2024-03-23T03:49:47;8.13;;;7.20;;
16270;SDS011;8243;49.048;8.396;2024-03-23T03:52:12;8.57;;;7.07;;
16270;SDS011;8243;49.048;8.396;2024-03-23T03:54:38;8.67;;;7.40;;
16270;SDS011;8243;49.048;8.396;2024-03-23T03:57:03;8.87;;;7.23;;
16270;SDS011;8243;49.048;8.396;2024-03-23T03:59:29;10.07;;;8.20;;
16270;SDS011;8243;49.048;8.396;2024-03-23T04:01:54;9.00;;;7.63;;
16270;SDS011;8243;49.048;8.396;2024-03-23T04:04:20;10.17;;;8.27;;
16270;SDS011;8243;49.048;8.396;2024-03-23T04:06:47;10.73;;;8.90;;
16270;SDS011;8243;49.048;8.396;2024-03-23T04:09:13;10.20;;;8.67;;
16270;SDS011;8243;49.048;8.396;2024-03-23T04:11:38;13.40;;;9.27;;
16270;SDS011;8243;49.048;8.396;2024-03-23T04:14:04;13.13;;;9.07;;
16270;SDS011;8243;49.048;8.396;2024-03-23T04:16:30;10.13;;;9.03;;
16270;SDS011;8243;49.048;8.396;2024-03-23T04:18:59;14.47;;;9.50;;
16270;SDS011;8243;49.048;8.396;2024-03-23T04:21:24;10.33;;;9.23;;
16270;SDS011;8243;49.048;8.396;2024-03-23T04:23:50;12.73;;;9.33;;
16270;SDS011;8243;49.048;8.396;2024-03-23T04:26:15;9.80;;;8.27;;
16270;SDS011;8243;49.048;8.396;2024-03-23T04:28:41;10.40;;;8.83;;
16270;SDS011;8243;49.048;8.396;2024-03-23T04:31:08;11.23;;;9.17;;
16270;SDS011;8243;49.048;8.396;2024-03-23T04:33:34;8.77;;;7.87;;
16270;SDS011;8243;49.048;8.396;2024-03-23T04:35:59;9.77;;;8.77;;
16270;SDS011;8243;49.048;8.396;2024-03-23T04:38:25;8.73;;;7.77;;
16270;SDS011;8243;49.048;8.396;2024-03-23T04:40:54;9.40;;;8.40;;
16270;SDS011;8243;49.048;8.396;2024-03-23T04:43:20;8.03;;;7.23;;
16270;SDS011;8243;49.048;8.396;2024-03-23T04:45:46;9.20;;;8.00;;
16270;SDS011;8243;49.048;8.396;2024-03-23T04:48:11;6.77;;;6.07;;
16270;SDS011;8243;49.048;8.396;2024-03-23T04:50:37;8.17;;;7.17;;
16270;SDS011;8243;49.048;8.396;2024-03-23T04:53:02;7.77;;;6.97;;
16270;SDS011;8243;49.048;8.396;2024-03-23T04:55:28;7.80;;;7.00;;
16270;SDS011;8243;49.048;8.396;2024-03-23T04:57:53;7.37;;;6.33;;
16270;SDS011;8243;49.048;8.396;2024-03-23T05:00:19;5.90;;;5.30;;
16270;SDS011;8243;49.048;8.396;2024-03-23T05:02:44;7.00;;;5.40;;
16270;SDS011;8243;49.048;8.396;2024-03-23T05:05:11;4.47;;;4.07;;
16270;SDS011;8243;49.048;8.396;2024-03-23T05:07:37;4.20;;;3.80;;
16270;SDS011;8243;49.048;8.396;2024-03-23T05:10:03;3.33;;;2.60;;
16270;SDS011;8243;49.048;8.396;2024-03-23T05:12:28;4.17;;;2.00;;
16270;SDS011;8243;49.048;8.396;2024-03-23T05:14:54;2.27;;;1.83;;
16270;SDS011;8243;49.048;8.396;2024-03-23T05:17:19;2.10;;;1.90;;
16270;SDS011;8243;49.048;8.396;2024-03-23T05:19:45;2.13;;;1.80;;
16270;SDS011;8243;49.048;8.396;2024-03-23T05:22:10;1.93;;;1.83;;
16270;SDS011;8243;49.048;8.396;2024-03-23T05:24:36;1.97;;;1.70;;
16270;SDS011;8243;49.048;8.396;2024-03-23T05:27:01;1.90;;;1.70;;
16270;SDS011;8243;49.048;8.396;2024-03-23T05:29:27;2.53;;;1.60;;
16270;SDS011;8243;49.048;8.396;2024-03-23T05:31:54;1.77;;;1.67;;
16270;SDS011;8243;49.048;8.396;2024-03-23T05:34:22;1.80;;;1.70;;
16270;SDS011;8243;49.048;8.396;2024-03-23T05:36:47;1.60;;;1.50;;
16270;SDS011;8243;49.048;8.396;2024-03-23T05:39:14;2.73;;;1.30;;
16270;SDS011;8243;49.048;8.396;2024-03-23T05:41:41;1.40;;;1.30;;
16270;SDS011;8243;49.048;8.396;2024-03-23T05:44:07;1.37;;;1.27;;
16270;SDS011;8243;49.048;8.396;2024-03-23T05:46:33;1.53;;;1.43;;
16270;SDS011;8243;49.048;8.396;2024-03-23T05:49:00;1.60;;;1.10;;
16270;SDS011;8243;49.048;8.396;2024-03-23T05:51:27;2.37;;;1.20;;
16270;SDS011;8243;49.048;8.396;2024-03-23T05:53:53;1.50;;;1.40;;
16270;SDS011;8243;49.048;8.396;2024-03-23T05:56:19;2.33;;;1.13;;
16270;SDS011;8243;49.048;8.396;2024-03-23T05:58:45;1.40;;;1.30;;
16270;SDS011;8243;49.048;8.396;2024-03-23T06:01:11;4.37;;;1.20;;
16270;SDS011;8243;49.048;8.396;2024-03-23T06:03:37;1.00;;;0.90;;
16270;SDS011;8243;49.048;8.396;2024-03-23T06:06:03;0.90;;;0.90;;
16270;SDS011;8243;49.048;8.396;2024-03-23T06:08:29;1.20;;;1.10;;
16270;SDS011;8243;49.048;8.396;2024-03-23T06:10:55;0.90;;;0.90;;
16270;SDS011;8243;49.048;8.396;2024-03-23T06:13:20;0.70;;;0.70;;
16270;SDS011;8243;49.048;8.396;2024-03-23T06:15:49;0.80;;;0.80;;
16270;SDS011;8243;49.048;8.396;2024-03-23T06:18:15;1.00;;;1.00;;
16270;SDS011;8243;49.048;8.396;2024-03-23T06:20:41;0.90;;;0.90;;
16270;SDS011;8243;49.048;8.396;2024-03-23T06:23:06;0.80;;;0.80;;
16270;SDS011;8243;49.048;8.396;2024-03-23T06:25:32;0.97;;;0.90;;
16270;SDS011;8243;49.048;8.396;2024-03-23T06:27:58;2.00;;;1.43;;
16270;SDS011;8243;49.048;8.396;2024-03-23T06:30:24;1.00;;;1.00;;
16270;SDS011;8243;49.048;8.396;2024-03-23T06:32:49;1.00;;;1.00;;
16270;SDS011;8243;49.048;8.396;2024-03-23T06:35:15;1.00;;;1.00;;
16270;SDS011;8243;49.048;8.396;2024-03-23T06:37:41;0.87;;;0.87;;
16270;SDS011;8243;49.048;8.396;2024-03-23T06:40:07;0.97;;;0.97;;
16270;SDS011;8243;49.048;8.396;2024-03-23T06:42:34;1.00;;;1.00;;
16270;SDS011;8243;49.048;8.396;2024-03-23T06:45:01;1.20;;;1.10;;
16270;SDS011;8243;49.048;8.396;2024-03-23T06:47:26;1.07;;;1.07;;
16270;SDS011;8243;49.048;8.396;2024-03-23T06:49:52;0.90;;;0.90;;
16270;SDS011;8243;49.048;8.396;2024-03-23T06:52:17;0.60;;;0.60;;
16270;SDS011;8243;49.048;8.396;2024-03-23T06:54:43;1.30;;;1.20;;
16270;SDS011;8243;49.048;8.396;2024-03-23T06:57:09;0.63;;;0.63;;
16270;SDS011;8243;49.048;8.396;2024-03-23T06:59:36;1.50;;;0.60;;
16270;SDS011;8243;49.048;8.396;2024-03-23T07:02:03;0.53;;;0.40;;
16270;SDS011;8243;49.048;8.396;2024-03-23T07:04:30;0.70;;;0.70;;
16270;SDS011;8243;49.048;8.396;2024-03-23T07:06:55;0.50;;;0.50;;
16270;SDS011;8243;49.048;8.396;2024-03-23T07:09:21;0.30;;;0.30;;
16270;SDS011;8243;49.048;8.396;2024-03-23T07:11:50;0.50;;;0.50;;
16270;SDS011;8243;49.048;8.396;2024-03-23T07:14:18;0.60;;;0.60;;
16270;SDS011;8243;49.048;8.396;2024-03-23T07:16:43;0.60;;;0.60;;
16270;SDS011;8243;49.048;8.396;2024-03-23T07:19:09;0.47;;;0.47;;
16270;SDS011;8243;49.048;8.396;2024-03-23T07:21:35;0.40;;;0.40;;
16270;SDS011;8243;49.048;8.396;2024-03-23T07:24:00;1.43;;;0.60;;
16270;SDS011;8243;49.048;8.396;2024-03-23T07:26:26;0.53;;;0.53;;
16270;SDS011;8243;49.048;8.396;2024-03-23T07:28:51;0.50;;;0.50;;
16270;SDS011;8243;49.048;8.396;2024-03-23T07:31:18;3.20;;;0.77;;
16270;SDS011;8243;49.048;8.396;2024-03-23T07:33:45;0.90;;;0.57;;
16270;SDS011;8243;49.048;8.396;2024-03-23T07:36:12;0.30;;;0.30;;
16270;SDS011;8243;49.048;8.396;2024-03-23T07:38:39;0.30;;;0.30;;
16270;SDS011;8243;49.048;8.396;2024-03-23T07:41:09;0.50;;;0.50;;
16270;SDS011;8243;49.048;8.396;2024-03-23T07:43:37;0.60;;;0.60;;
16270;SDS011;8243;49.048;8.396;2024-03-23T07:46:03;0.70;;;0.70;;
16270;SDS011;8243;49.048;8.396;2024-03-23T07:48:29;0.53;;;0.50;;
16270;SDS011;8243;49.048;8.396;2024-03-23T07:51:05;0.93;;;0.57;;
16270;SDS011;8243;49.048;8.396;2024-03-23T07:53:32;0.77;;;0.70;;
16270;SDS011;8243;49.048;8.396;2024-03-23T07:56:00;2.10;;;0.80;;
16270;SDS011;8243;49.048;8.396;2024-03-23T07:58:27;2.00;;;1.30;;
16270;SDS011;8243;49.048;8.396;2024-03-23T08:00:53;2.30;;;1.30;;
16270;SDS011;8243;49.048;8.396;2024-03-23T08:03:28;4.37;;;1.80;;
16270;SDS011;8243;49.048;8.396;2024-03-23T08:05:53;3.27;;;1.70;;
16270;SDS011;8243;49.048;8.396;2024-03-23T08:08:19;6.50;;;1.83;;
16270;SDS011;8243;49.048;8.396;2024-03-23T08:10:48;4.07;;;1.80;;
16270;SDS011;8243;49.048;8.396;2024-03-23T08:13:14;4.13;;;1.90;;
16270;SDS011;8243;49.048;8.396;2024-03-23T08:15:40;4.13;;;1.90;;
16270;SDS011;8243;49.048;8.396;2024-03-23T08:18:05;2.37;;;1.73;;
16270;SDS011;8243;49.048;8.396;2024-03-23T08:20:33;5.63;;;2.30;;
16270;SDS011;8243;49.048;8.396;2024-03-23T08:22:58;6.57;;;2.07;;
16270;SDS011;8243;49.048;8.396;2024-03-23T08:25:24;4.50;;;1.77;;
16270;SDS011;8243;49.048;8.396;2024-03-23T08:27:49;5.00;;;2.03;;
16270;SDS011;8243;49.048;8.396;2024-03-23T08:30:15;5.30;;;2.00;;
16270;SDS011;8243;49.048;8.396;2024-03-23T08:32:41;4.90;;;2.10;;
16270;SDS011;8243;49.048;8.396;2024-03-23T08:35:07;5.37;;;2.00;;
16270;SDS011;8243;49.048;8.396;2024-03-23T08:37:33;5.27;;;2.20;;
16270;SDS011;8243;49.048;8.396;2024-03-23T08:39:59;5.63;;;2.23;;
16270;SDS011;8243;49.048;8.396;2024-03-23T08:42:24;5.53;;;2.10;;
16270;SDS011;8243;49.048;8.396;2024-03-23T08:44:50;4.57;;;2.73;;
16270;SDS011;8243;49.048;8.396;2024-03-23T08:47:15;3.57;;;2.20;;
16270;SDS011;8243;49.048;8.396;2024-03-23T08:49:41;6.50;;;2.40;;
16270;SDS011;8243;49.048;8.396;2024-03-23T08:52:07;4.30;;;2.30;;
16270;SDS011;8243;49.048;8.396;2024-03-23T08:54:33;5.97;;;2.03;;
16270;SDS011;8243;49.048;8.396;2024-03-23T08:56:59;6.07;;;2.17;;
16270;SDS011;8243;49.048;8.396;2024-03-23T08:59:25;6.20;;;2.60;;
16270;SDS011;8243;49.048;8.396;2024-03-23T09:01:50;5.53;;;2.00;;
16270;SDS011;8243;49.048;8.396;2024-03-23T09:04:16;5.03;;;2.17;;
16270;SDS011;8243;49.048;8.396;2024-03-23T09:06:44;5.53;;;2.43;;
16270;SDS011;8243;49.048;8.396;2024-03-23T09:09:10;6.33;;;2.63;;
16270;SDS011;8243;49.048;8.396;2024-03-23T09:11:35;5.77;;;2.67;;
16270;SDS011;8243;49.048;8.396;2024-03-23T09:14:02;6.90;;;2.70;;
16270;SDS011;8243;49.048;8.396;2024-03-23T09:16:28;5.87;;;2.20;;
16270;SDS011;8243;49.048;8.396;2024-03-23T09:18:54;5.97;;;2.57;;
16270;SDS011;8243;49.048;8.396;2024-03-23T09:21:19;6.00;;;2.50;;
16270;SDS011;8243;49.048;8.396;2024-03-23T09:23:45;5.70;;;2.33;;
16270;SDS011;8243;49.048;8.396;2024-03-23T09:26:11;7.27;;;2.97;;
16270;SDS011;8243;49.048;8.396;2024-03-23T09:28:36;7.10;;;2.63;;
16270;SDS011;8243;49.048;8.396;2024-03-23T09:31:05;5.70;;;2.87;;
16270;SDS011;8243;49.048;8.396;2024-03-23T09:33:32;11.10;;;3.13;;
16270;SDS011;8243;49.048;8.396;2024-03-23T09:36:04;3.40;;;2.50;;
16270;SDS011;8243;49.048;8.396;2024-03-23T09:38:30;5.17;;;2.80;;
16270;SDS011;8243;49.048;8.396;2024-03-23T09:40:56;5.50;;;2.40;;
16270;SDS011;8243;49.048;8.396;2024-03-23T09:43:22;6.80;;;2.77;;
16270;SDS011;8243;49.048;8.396;2024-03-23T09:45:48;8.57;;;2.77;;
16270;SDS011;8243;49.048;8.396;2024-03-23T09:48:14;5.73;;;2.77;;
16270;SDS011;8243;49.048;8.396;2024-03-23T09:50:41;6.20;;;3.00;;
16270;SDS011;8243;49.048;8.396;2024-03-23T09:53:07;6.07;;;3.37;;
16270;SDS011;8243;49.048;8.396;2024-03-23T09:55:34;7.83;;;3.80;;
16270;SDS011;8243;49.048;8.396;2024-03-23T09:58:00;6.27;;;3.43;;
16270;SDS011;8243;49.048;8.396;2024-03-23T10:00:26;7.30;;;3.20;;
16270;SDS011;8243;49.048;8.396;2024-03-23T10:02:54;7.33;;;3.27;;
16270;SDS011;8243;49.048;8.396;2024-03-23T10:05:21;7.03;;;2.60;;
16270;SDS011;8243;49.048;8.396;2024-03-23T10:07:52;6.90;;;3.40;;
16270;SDS011;8243;49.048;8.396;2024-03-23T10:10:18;6.03;;;3.43;;
16270;SDS011;8243;49.048;8.396;2024-03-23T10:12:47;7.00;;;3.53;;
16270;SDS011;8243;49.048;8.396;2024-03-23T10:15:22;7.73;;;3.37;;
16270;SDS011;8243;49.048;8.396;2024-03-23T10:17:51;7.97;;;3.30;;
16270;SDS011;8243;49.048;8.396;2024-03-23T10:20:21;9.40;;;3.30;;
16270;SDS011;8243;49.048;8.396;2024-03-23T10:22:48;7.63;;;3.10;;
16270;SDS011;8243;49.048;8.396;2024-03-23T10:25:16;4.47;;;2.90;;
16270;SDS011;8243;49.048;8.396;2024-03-23T10:27:42;4.43;;;2.87;;
16270;SDS011;8243;49.048;8.396;2024-03-23T10:30:09;6.67;;;3.03;;
16270;SDS011;8243;49.048;8.396;2024-03-23T10:32:37;6.63;;;2.80;;
16270;SDS011;8243;49.048;8.396;2024-03-23T10:35:18;6.87;;;2.70;;
16270;SDS011;8243;49.048;8.396;2024-03-23T10:37:48;4.80;;;2.37;;
16270;SDS011;8243;49.048;8.396;2024-03-23T10:40:17;6.87;;;2.30;;
16270;SDS011;8243;49.048;8.396;2024-03-23T10:42:43;5.50;;;1.90;;
16270;SDS011;8243;49.048;8.396;2024-03-23T10:45:09;4.27;;;2.20;;
16270;SDS011;8243;49.048;8.396;2024-03-23T10:47:36;4.70;;;2.40;;
16270;SDS011;8243;49.048;8.396;2024-03-23T10:50:05;3.43;;;2.13;;
16270;SDS011;8243;49.048;8.396;2024-03-23T10:52:34;4.37;;;2.30;;
16270;SDS011;8243;49.048;8.396;2024-03-23T10:55:04;3.80;;;2.17;;
16270;SDS011;8243;49.048;8.396;2024-03-23T10:57:34;3.87;;;2.37;;
16270;SDS011;8243;49.048;8.396;2024-03-23T11:00:05;4.50;;;2.50;;
16270;SDS011;8243;49.048;8.396;2024-03-23T11:02:31;6.20;;;2.77;;
16270;SDS011;8243;49.048;8.396;2024-03-23T11:04:56;6.63;;;2.60;;
16270;SDS011;8243;49.048;8.396;2024-03-23T11:07:31;3.97;;;2.30;;
16270;SDS011;8243;49.048;8.396;2024-03-23T11:09:58;5.80;;;2.30;;
16270;SDS011;8243;49.048;8.396;2024-03-23T11:15:04;5.57;;;2.47;;
16270;SDS011;8243;49.048;8.396;2024-03-23T11:17:36;5.40;;;2.03;;
16270;SDS011;8243;49.048;8.396;2024-03-23T11:20:02;6.13;;;2.53;;
16270;SDS011;8243;49.048;8.396;2024-03-23T11:22:40;4.30;;;2.30;;
16270;SDS011;8243;49.048;8.396;2024-03-23T11:25:20;8.50;;;2.67;;
16270;SDS011;8243;49.048;8.396;2024-03-23T11:27:49;5.67;;;2.20;;
16270;SDS011;8243;49.048;8.396;2024-03-23T11:30:20;4.67;;;2.33;;
16270;SDS011;8243;49.048;8.396;2024-03-23T11:32:49;4.30;;;2.20;;
16270;SDS011;8243;49.048;8.396;2024-03-23T11:35:25;4.90;;;2.23;;
16270;SDS011;8243;49.048;8.396;2024-03-23T11:38:07;5.97;;;2.30;;
16270;SDS011;8243;49.048;8.396;2024-03-23T11:40:44;6.87;;;2.50;;
16270;SDS011;8243;49.048;8.396;2024-03-23T11:43:14;6.10;;;2.17;;
16270;SDS011;8243;49.048;8.396;2024-03-23T11:48:15;5.53;;;2.43;;
16270;SDS011;8243;49.048;8.396;2024-03-23T11:50:50;3.77;;;2.10;;
16270;SDS011;8243;49.048;8.396;2024-03-23T11:53:20;6.27;;;2.33;;
16270;SDS011;8243;49.048;8.396;2024-03-23T11:58:17;6.67;;;2.47;;
16270;SDS011;8243;49.048;8.396;2024-03-23T12:00:50;5.07;;;2.50;;
16270;SDS011;8243;49.048;8.396;2024-03-23T12:03:17;4.40;;;2.43;;
16270;SDS011;8243;49.048;8.396;2024-03-23T12:05:49;4.77;;;2.50;;
16270;SDS011;8243;49.048;8.396;2024-03-23T12:08:19;5.37;;;2.17;;
16270;SDS011;8243;49.048;8.396;2024-03-23T12:10:53;4.77;;;2.30;;
16270;SDS011;8243;49.048;8.396;2024-03-23T12:13:31;6.30;;;2.63;;
16270;SDS011;8243;49.048;8.396;2024-03-23T12:16:08;6.93;;;2.90;;
16270;SDS011;8243;49.048;8.396;2024-03-23T12:18:34;5.63;;;2.20;;
16270;SDS011;8243;49.048;8.396;2024-03-23T12:20:59;8.50;;;2.97;;
16270;SDS011;8243;49.048;8.396;2024-03-23T12:23:25;5.20;;;2.60;;
16270;SDS011;8243;49.048;8.396;2024-03-23T12:25:50;5.87;;;2.80;;
16270;SDS011;8243;49.048;8.396;2024-03-23T12:28:16;5.27;;;2.00;;
16270;SDS011;8243;49.048;8.396;2024-03-23T12:30:42;9.77;;;2.40;;
16270;SDS011;8243;49.048;8.396;2024-03-23T12:33:07;7.47;;;2.23;;
16270;SDS011;8243;49.048;8.396;2024-03-23T12:35:33;5.37;;;2.33;;
16270;SDS011;8243;49.048;8.396;2024-03-23T12:37:59;4.90;;;2.40;;
16270;SDS011;8243;49.048;8.396;2024-03-23T12:40:25;5.10;;;2.30;;
16270;SDS011;8243;49.048;8.396;2024-03-23T12:42:51;5.83;;;2.23;;
16270;SDS011;8243;49.048;8.396;2024-03-23T12:45:17;5.10;;;2.20;;
16270;SDS011;8243;49.048;8.396;2024-03-23T12:47:42;3.57;;;1.80;;
16270;SDS011;8243;49.048;8.396;2024-03-23T12:50:08;6.63;;;1.93;;
16270;SDS011;8243;49.048;8.396;2024-03-23T12:52:34;4.10;;;1.40;;
16270;SDS011;8243;49.048;8.396;2024-03-23T12:55:00;3.70;;;1.33;;
16270;SDS011;8243;49.048;8.396;2024-03-23T12:57:26;5.27;;;1.20;;
16270;SDS011;8243;49.048;8.396;2024-03-23T12:59:52;1.13;;;1.03;;
16270;SDS011;8243;49.048;8.396;2024-03-23T13:02:19;1.63;;;0.60;;
16270;SDS011;8243;49.048;8.396;2024-03-23T13:04:51;2.37;;;0.77;;
16270;SDS011;8243;49.048;8.396;2024-03-23T13:07:18;3.67;;;1.10;;
16270;SDS011;8243;49.048;8.396;2024-03-23T13:09:44;5.30;;;1.20;;
16270;SDS011;8243;49.048;8.396;2024-03-23T13:12:10;2.07;;;0.90;;
16270;SDS011;8243;49.048;8.396;2024-03-23T13:14:39;2.67;;;1.07;;
16270;SDS011;8243;49.048;8.396;2024-03-23T13:17:05;0.97;;;0.67;;
16270;SDS011;8243;49.048;8.396;2024-03-23T13:19:31;0.97;;;0.80;;
16270;SDS011;8243;49.048;8.396;2024-03-23T13:21:58;2.53;;;0.90;;
16270;SDS011;8243;49.048;8.396;2024-03-23T13:24:25;1.43;;;0.63;;
16270;SDS011;8243;49.048;8.396;2024-03-23T13:26:51;2.07;;;1.20;;
16270;SDS011;8243;49.048;8.396;2024-03-23T13:29:17;0.97;;;0.80;;
16270;SDS011;8243;49.048;8.396;2024-03-23T13:31:44;2.37;;;1.00;;
16270;SDS011;8243;49.048;8.396;2024-03-23T13:34:10;5.17;;;1.20;;
16270;SDS011;8243;49.048;8.396;2024-03-23T13:36:35;1.20;;;0.90;;
16270;SDS011;8243;49.048;8.396;2024-03-23T13:39:01;3.23;;;1.10;;
16270;SDS011;8243;49.048;8.396;2024-03-23T13:41:32;1.90;;;1.10;;
16270;SDS011;8243;49.048;8.396;2024-03-23T13:43:58;2.10;;;1.23;;
16270;SDS011;8243;49.048;8.396;2024-03-23T13:46:23;3.53;;;1.20;;
16270;SDS011;8243;49.048;8.396;2024-03-23T13:48:49;2.37;;;1.07;;
16270;SDS011;8243;49.048;8.396;2024-03-23T13:51:14;1.80;;;1.20;;
16270;SDS011;8243;49.048;8.396;2024-03-23T13:53:40;1.13;;;0.93;;
16270;SDS011;8243;49.048;8.396;2024-03-23T13:56:05;2.27;;;1.20;;
16270;SDS011;8243;49.048;8.396;2024-03-23T13:58:31;3.10;;;1.30;;
16270;SDS011;8243;49.048;8.396;2024-03-23T14:00:57;1.70;;;1.00;;
16270;SDS011;8243;49.048;8.396;2024-03-23T14:03:23;2.97;;;1.20;;
16270;SDS011;8243;49.048;8.396;2024-03-23T14:05:48;2.33;;;1.10;;
16270;SDS011;8243;49.048;8.396;2024-03-23T14:08:14;1.57;;;0.80;;
16270;SDS011;8243;49.048;8.396;2024-03-23T14:10:40;2.63;;;0.80;;
16270;SDS011;8243;49.048;8.396;2024-03-23T14:13:06;1.33;;;0.93;;
16270;SDS011;8243;49.048;8.396;2024-03-23T14:15:32;2.03;;;0.90;;
16270;SDS011;8243;49.048;8.396;2024-03-23T14:17:58;2.17;;;1.00;;
16270;SDS011;8243;49.048;8.396;2024-03-23T14:20:24;2.17;;;1.03;;
16270;SDS011;8243;49.048;8.396;2024-03-23T14:22:53;2.50;;;1.30;;
16270;SDS011;8243;49.048;8.396;2024-03-23T14:25:19;4.40;;;1.67;;
16270;SDS011;8243;49.048;8.396;2024-03-23T14:27:45;1.50;;;0.90;;
16270;SDS011;8243;49.048;8.396;2024-03-23T14:30:11;1.37;;;1.00;;
16270;SDS011;8243;49.048;8.396;2024-03-23T14:32:38;1.60;;;0.93;;
16270;SDS011;8243;49.048;8.396;2024-03-23T14:35:04;0.73;;;0.63;;
16270;SDS011;8243;49.048;8.396;2024-03-23T14:37:29;1.27;;;0.90;;
16270;SDS011;8243;49.048;8.396;2024-03-23T14:39:56;1.97;;;0.70;;
16270;SDS011;8243;49.048;8.396;2024-03-23T14:42:21;1.27;;;0.80;;
16270;SDS011;8243;49.048;8.396;2024-03-23T14:44:48;1.03;;;0.77;;
16270;SDS011;8243;49.048;8.396;2024-03-23T14:47:15;0.93;;;0.77;;
16270;SDS011;8243;49.048;8.396;2024-03-23T14:49:42;2.43;;;0.90;;
16270;SDS011;8243;49.048;8.396;2024-03-23T14:52:12;1.37;;;1.10;;
16270;SDS011;8243;49.048;8.396;2024-03-23T14:54:38;3.03;;;1.20;;
16270;SDS011;8243;49.048;8.396;2024-03-23T14:57:04;2.30;;;1.10;;
16270;SDS011;8243;49.048;8.396;2024-03-23T14:59:29;3.07;;;1.30;;
16270;SDS011;8243;49.048;8.396;2024-03-23T15:01:55;2.87;;;1.70;;
16270;SDS011;8243;49.048;8.396;2024-03-23T15:04:21;1.93;;;1.10;;
16270;SDS011;8243;49.048;8.396;2024-03-23T15:06:46;1.97;;;1.17;;
16270;SDS011;8243;49.048;8.396;2024-03-23T15:09:14;2.70;;;1.40;;
16270;SDS011;8243;49.048;8.396;2024-03-23T15:11:40;2.63;;;1.73;;
16270;SDS011;8243;49.048;8.396;2024-03-23T15:14:05;1.90;;;1.60;;
16270;SDS011;8243;49.048;8.396;2024-03-23T15:16:32;2.50;;;1.30;;
16270;SDS011;8243;49.048;8.396;2024-03-23T15:18:58;2.77;;;1.40;;
16270;SDS011;8243;49.048;8.396;2024-03-23T15:21:24;2.60;;;1.27;;
16270;SDS011;8243;49.048;8.396;2024-03-23T15:23:49;2.47;;;1.40;;
16270;SDS011;8243;49.048;8.396;2024-03-23T15:26:15;4.37;;;1.33;;
16270;SDS011;8243;49.048;8.396;2024-03-23T15:28:41;1.90;;;1.20;;
16270;SDS011;8243;49.048;8.396;2024-03-23T15:31:27;4.43;;;1.70;;
16270;SDS011;8243;49.048;8.396;2024-03-23T15:33:52;3.00;;;1.60;;
16270;SDS011;8243;49.048;8.396;2024-03-23T15:36:18;1.83;;;1.17;;
16270;SDS011;8243;49.048;8.396;2024-03-23T15:38:43;1.57;;;1.33;;
16270;SDS011;8243;49.048;8.396;2024-03-23T15:41:10;2.57;;;1.50;;
16270;SDS011;8243;49.048;8.396;2024-03-23T15:43:35;3.10;;;1.40;;
16270;SDS011;8243;49.048;8.396;2024-03-23T15:46:02;4.40;;;1.70;;
16270;SDS011;8243;49.048;8.396;2024-03-23T15:48:29;2.87;;;1.40;;
16270;SDS011;8243;49.048;8.396;2024-03-23T15:51:02;2.80;;;1.37;;
16270;SDS011;8243;49.048;8.396;2024-03-23T15:53:29;2.70;;;1.60;;
16270;SDS011;8243;49.048;8.396;2024-03-23T15:55:59;4.30;;;1.77;;